createdAt,value
2019-03-17T00:00:34.841Z,10.10
2019-03-17T00:03:03.535Z,10.10
2019-03-17T00:05:33.602Z,10.20
2019-03-17T00:08:02.031Z,10.20
2019-03-17T00:10:31.144Z,10.20
2019-03-17T00:12:59.580Z,10.20
2019-03-17T00:15:28.021Z,9.70
2019-03-17T00:17:56.440Z,10.20
2019-03-17T00:20:24.885Z,10.20
2019-03-17T00:22:53.303Z,10.20
2019-03-17T00:25:21.749Z,10.20
2019-03-17T00:27:50.184Z,10.20
2019-03-17T00:30:18.625Z,10.20
2019-03-17T00:32:47.053Z,10.20
2019-03-17T00:35:16.728Z,10.20
2019-03-17T00:37:45.173Z,10.20
2019-03-17T00:40:13.753Z,10.20
2019-03-17T00:42:42.291Z,10.30
2019-03-17T00:45:12.143Z,10.20
2019-03-17T00:47:42.175Z,10.30
2019-03-17T00:50:12.205Z,10.20
2019-03-17T00:52:40.672Z,10.30
2019-03-17T00:55:09.322Z,10.20
2019-03-17T00:57:37.835Z,10.20
2019-03-17T01:00:14.658Z,10.20
2019-03-17T01:02:43.187Z,10.30
2019-03-17T01:05:12.068Z,10.20
2019-03-17T01:07:40.509Z,10.30
2019-03-17T01:10:09.969Z,10.20
2019-03-17T01:12:40.569Z,10.20
2019-03-17T01:15:09.575Z,10.20
2019-03-17T01:17:38.025Z,10.20
2019-03-17T01:20:09.302Z,10.20
2019-03-17T01:22:37.741Z,10.20
2019-03-17T01:25:08.265Z,10.20
2019-03-17T01:27:36.763Z,10.20
2019-03-17T01:30:08.389Z,10.20
2019-03-17T01:32:36.853Z,10.20
2019-03-17T01:35:09.448Z,10.20
2019-03-17T01:37:37.771Z,10.20
2019-03-17T01:40:08.637Z,10.20
2019-03-17T01:42:37.081Z,10.20
2019-03-17T01:45:07.344Z,10.20
2019-03-17T01:47:35.803Z,10.20
2019-03-17T01:50:05.577Z,10.20
2019-03-17T01:52:36.209Z,10.20
2019-03-17T01:55:06.320Z,10.20
2019-03-17T01:57:34.768Z,10.30
2019-03-17T02:00:03.363Z,10.20
2019-03-17T02:02:31.826Z,10.30
2019-03-17T02:05:00.388Z,10.30
2019-03-17T02:07:29.059Z,10.30
2019-03-17T02:09:57.493Z,10.30
2019-03-17T02:12:25.926Z,10.20
2019-03-17T02:14:54.368Z,10.20
2019-03-17T02:17:22.924Z,10.20
2019-03-17T02:19:51.364Z,10.20
2019-03-17T02:22:22.175Z,10.30
2019-03-17T02:24:49.948Z,10.20
2019-03-17T02:27:21.208Z,10.30
2019-03-17T02:29:49.646Z,10.30
2019-03-17T02:32:19.351Z,10.30
2019-03-17T02:34:47.799Z,10.30
2019-03-17T02:37:16.221Z,10.30
2019-03-17T02:39:44.670Z,10.30
2019-03-17T02:42:13.084Z,10.30
2019-03-17T02:44:41.536Z,10.30
2019-03-17T02:47:09.973Z,10.40
2019-03-17T02:49:38.426Z,10.40
2019-03-17T02:52:06.998Z,10.40
2019-03-17T02:54:35.489Z,10.40
2019-03-17T02:57:03.914Z,10.40
2019-03-17T02:59:32.524Z,10.40
2019-03-17T03:02:01.134Z,10.40
2019-03-17T03:04:29.709Z,10.40
2019-03-17T03:06:58.151Z,10.40
2019-03-17T03:09:26.592Z,10.40
2019-03-17T03:11:56.567Z,10.40
2019-03-17T03:14:25.005Z,10.40
2019-03-17T03:16:53.457Z,10.40
2019-03-17T03:19:22.132Z,10.40
2019-03-17T03:21:50.577Z,10.40
2019-03-17T03:24:19.025Z,10.30
2019-03-17T03:26:47.456Z,10.30
2019-03-17T03:29:15.884Z,10.30
2019-03-17T03:31:44.451Z,10.30
2019-03-17T03:34:13.112Z,10.30
2019-03-17T03:36:41.619Z,10.30
2019-03-17T03:39:10.120Z,10.30
2019-03-17T03:41:38.585Z,10.20
2019-03-17T03:44:07.007Z,10.20
2019-03-17T03:46:35.450Z,10.20
2019-03-17T03:49:03.996Z,10.20
2019-03-17T03:51:32.527Z,10.20
2019-03-17T03:54:01.037Z,10.20
2019-03-17T03:56:29.476Z,10.20
2019-03-17T03:58:57.903Z,10.20
2019-03-17T04:01:26.366Z,10.10
2019-03-17T04:03:55.162Z,10.00
2019-03-17T04:06:26.910Z,10.00
2019-03-17T04:08:53.755Z,9.90
2019-03-17T04:11:22.193Z,9.90
2019-03-17T04:13:50.630Z,9.90
2019-03-17T04:16:19.069Z,9.90
2019-03-17T04:18:47.504Z,9.90
2019-03-17T04:21:15.980Z,10.00
2019-03-17T04:23:44.463Z,9.90
2019-03-17T04:26:12.905Z,9.90
2019-03-17T04:28:41.332Z,9.90
2019-03-17T04:31:09.773Z,10.00
2019-03-17T04:33:38.197Z,10.00
2019-03-17T04:36:06.639Z,10.00
2019-03-17T04:38:35.060Z,10.10
2019-03-17T04:41:03.503Z,10.10
2019-03-17T04:43:32.021Z,10.10
2019-03-17T04:46:02.673Z,10.10
2019-03-17T04:48:31.177Z,10.10
2019-03-17T04:50:59.733Z,10.20
2019-03-17T04:53:28.363Z,10.20
2019-03-17T04:55:56.805Z,10.20
2019-03-17T04:58:25.264Z,10.20
2019-03-17T05:00:53.877Z,10.30
2019-03-17T05:03:22.396Z,10.30
2019-03-17T05:05:50.823Z,10.30
2019-03-17T05:08:19.256Z,10.30
2019-03-17T05:10:48.136Z,10.30
2019-03-17T05:13:17.147Z,10.30
2019-03-17T05:15:45.620Z,10.30
2019-03-17T05:18:14.091Z,10.20
2019-03-17T05:20:42.520Z,10.20
2019-03-17T05:23:11.524Z,10.70
2019-03-17T05:25:39.994Z,10.90
2019-03-17T05:28:08.498Z,11.40
2019-03-17T05:30:36.925Z,11.00
2019-03-17T05:33:08.088Z,10.90
2019-03-17T05:35:39.085Z,10.90
2019-03-17T05:38:07.529Z,11.00
2019-03-17T05:40:35.961Z,11.20
2019-03-17T05:43:04.401Z,11.20
2019-03-17T05:45:32.959Z,11.40
2019-03-17T05:48:01.381Z,11.60
2019-03-17T05:50:29.819Z,11.10
2019-03-17T05:52:58.241Z,10.80
2019-03-17T05:55:26.690Z,10.60
2019-03-17T05:57:55.111Z,10.00
2019-03-17T06:00:23.582Z,9.80
2019-03-17T06:02:52.001Z,9.70
2019-03-17T06:05:20.438Z,9.60
2019-03-17T06:07:48.870Z,9.50
2019-03-17T06:10:17.306Z,9.60
2019-03-17T06:12:45.729Z,9.50
2019-03-17T06:15:14.179Z,9.50
2019-03-17T06:17:42.742Z,9.50
2019-03-17T06:20:12.206Z,9.40
2019-03-17T06:22:40.631Z,9.40
2019-03-17T06:25:10.212Z,9.40
2019-03-17T06:27:38.762Z,9.40
2019-03-17T06:30:12.231Z,9.30
2019-03-17T06:32:42.225Z,9.30
2019-03-17T06:35:10.666Z,9.30
2019-03-17T06:37:39.097Z,9.30
2019-03-17T06:40:10.641Z,9.30
2019-03-17T06:42:39.078Z,9.30
2019-03-17T06:45:09.570Z,9.30
2019-03-17T06:47:37.993Z,9.20
2019-03-17T06:50:12.562Z,9.30
2019-03-17T06:52:42.566Z,9.20
2019-03-17T06:55:16.023Z,9.10
2019-03-17T06:57:44.456Z,8.00
2019-03-17T07:00:14.305Z,7.50
2019-03-17T07:02:43.061Z,7.20
2019-03-17T07:05:11.516Z,7.30
2019-03-17T07:07:44.336Z,7.30
2019-03-17T07:10:11.036Z,7.10
2019-03-17T07:12:39.618Z,7.10
2019-03-17T07:15:10.685Z,7.10
2019-03-17T07:17:39.124Z,7.10
2019-03-17T07:20:10.658Z,7.10
2019-03-17T07:22:39.083Z,6.90
2019-03-17T07:25:09.051Z,6.80
2019-03-17T07:27:37.480Z,6.70
2019-03-17T07:30:11.777Z,6.70
2019-03-17T07:32:40.215Z,6.80
2019-03-17T07:35:08.724Z,6.80
2019-03-17T07:37:37.185Z,6.60
2019-03-17T07:40:08.691Z,6.60
2019-03-17T07:42:37.120Z,6.60
2019-03-17T07:45:10.265Z,6.40
2019-03-17T07:47:38.778Z,6.60
2019-03-17T07:50:11.909Z,6.60
2019-03-17T07:52:40.447Z,6.60
2019-03-17T07:55:09.930Z,6.50
2019-03-17T07:57:38.393Z,6.60
2019-03-17T08:00:09.394Z,6.60
2019-03-17T08:02:39.378Z,6.50
2019-03-17T08:05:09.610Z,6.70
2019-03-17T08:07:38.387Z,6.60
2019-03-17T08:10:14.027Z,6.60
2019-03-17T08:12:44.050Z,6.60
2019-03-17T08:15:13.835Z,6.70
2019-03-17T08:17:42.276Z,6.70
2019-03-17T08:20:11.892Z,6.70
2019-03-17T08:22:40.382Z,6.90
2019-03-17T08:25:10.106Z,7.00
2019-03-17T08:27:38.566Z,7.20
2019-03-17T08:30:12.794Z,7.30
2019-03-17T08:32:41.730Z,7.20
2019-03-17T08:35:11.081Z,7.00
2019-03-17T08:37:39.574Z,7.10
2019-03-17T08:40:15.521Z,7.10
2019-03-17T08:42:44.497Z,7.10
2019-03-17T08:45:14.167Z,7.20
2019-03-17T08:47:42.761Z,7.30
2019-03-17T08:50:15.218Z,7.40
2019-03-17T08:52:43.935Z,7.40
2019-03-17T08:55:12.805Z,7.50
2019-03-17T08:57:41.356Z,7.50
2019-03-17T09:00:12.455Z,7.50
2019-03-17T09:02:41.071Z,7.30
2019-03-17T09:05:10.020Z,7.40
2019-03-17T09:07:38.963Z,7.40
2019-03-17T09:10:17.607Z,7.50
2019-03-17T09:12:46.085Z,7.40
2019-03-17T09:15:14.743Z,7.60
2019-03-17T09:17:43.241Z,7.50
2019-03-17T09:20:15.442Z,7.30
2019-03-17T09:22:43.958Z,7.40
2019-03-17T09:25:12.806Z,7.50
2019-03-17T09:27:41.378Z,7.40
2019-03-17T09:30:13.368Z,7.50
2019-03-17T09:32:42.708Z,7.50
2019-03-17T09:35:11.391Z,7.70
2019-03-17T09:37:39.843Z,7.50
2019-03-17T09:40:13.510Z,7.50
2019-03-17T09:42:41.978Z,7.60
2019-03-17T09:45:15.921Z,7.60
2019-03-17T09:47:44.593Z,7.40
2019-03-17T09:50:20.850Z,7.40
2019-03-17T09:52:50.321Z,7.40
2019-03-17T09:55:19.613Z,7.50
2019-03-17T09:57:48.122Z,7.40
2019-03-17T10:00:21.300Z,7.30
2019-03-17T10:02:49.861Z,7.30
2019-03-17T10:05:18.361Z,7.40
2019-03-17T10:07:46.805Z,7.40
2019-03-17T10:10:17.591Z,7.50
2019-03-17T10:12:46.607Z,7.60
2019-03-17T10:15:19.285Z,7.60
2019-03-17T10:17:47.843Z,7.50
2019-03-17T10:20:20.554Z,7.60
2019-03-17T10:22:49.051Z,9.20
2019-03-17T10:25:25.428Z,9.40
2019-03-17T10:27:57.612Z,8.20
2019-03-17T10:30:26.110Z,8.00
2019-03-17T10:32:54.538Z,7.80
2019-03-17T10:35:22.969Z,7.80
2019-03-17T10:37:51.385Z,7.70
2019-03-17T10:40:21.463Z,7.80
2019-03-17T10:42:50.451Z,7.90
2019-03-17T10:45:18.959Z,7.90
2019-03-17T10:47:47.381Z,8.00
2019-03-17T10:50:18.014Z,8.10
2019-03-17T10:52:46.804Z,8.00
2019-03-17T10:55:15.513Z,9.00
2019-03-17T10:57:43.951Z,10.60
2019-03-17T11:00:24.466Z,10.70
2019-03-17T11:02:52.916Z,10.40
2019-03-17T11:05:21.335Z,9.20
2019-03-17T11:07:49.908Z,8.70
2019-03-17T11:10:19.679Z,8.60
2019-03-17T11:12:48.249Z,8.70
2019-03-17T11:15:20.510Z,8.80
2019-03-17T11:17:48.946Z,8.70
2019-03-17T11:20:17.388Z,8.70
2019-03-17T11:22:45.880Z,8.80
2019-03-17T11:25:15.277Z,9.00
2019-03-17T11:27:43.737Z,9.00
2019-03-17T11:30:16.334Z,8.90
2019-03-17T11:32:44.833Z,8.70
2019-03-17T11:35:13.390Z,8.60
2019-03-17T11:37:41.836Z,8.70
2019-03-17T11:40:18.185Z,9.00
2019-03-17T11:42:49.511Z,9.00
2019-03-17T11:45:17.860Z,9.30
2019-03-17T11:47:46.389Z,9.10
2019-03-17T11:50:22.126Z,9.00
2019-03-17T11:52:51.142Z,8.80
2019-03-17T11:55:19.556Z,8.80
2019-03-17T11:57:49.358Z,8.60
2019-03-17T12:00:22.664Z,8.60
2019-03-17T12:02:51.112Z,8.40
2019-03-17T12:05:19.617Z,8.20
2019-03-17T12:07:48.062Z,8.10
2019-03-17T12:10:21.521Z,8.30
2019-03-17T12:12:49.953Z,8.50
2019-03-17T12:15:22.484Z,8.40
2019-03-17T12:17:50.928Z,8.50
2019-03-17T12:20:19.625Z,8.50
2019-03-17T12:22:48.052Z,8.30
2019-03-17T12:25:18.117Z,8.30
2019-03-17T12:27:46.823Z,8.30
2019-03-17T12:30:30.131Z,8.30
2019-03-17T12:32:58.564Z,8.30
2019-03-17T12:35:27.161Z,8.20
2019-03-17T12:37:55.597Z,8.30
2019-03-17T12:40:25.752Z,8.50
2019-03-17T12:42:54.183Z,8.50
2019-03-17T12:45:22.765Z,8.50
2019-03-17T12:47:51.200Z,8.40
2019-03-17T12:50:22.219Z,8.40
2019-03-17T12:52:50.654Z,8.50
2019-03-17T12:55:19.113Z,8.50
2019-03-17T12:57:47.714Z,8.80
2019-03-17T13:00:18.586Z,8.50
2019-03-17T13:02:47.000Z,8.60
2019-03-17T13:05:15.446Z,8.60
2019-03-17T13:07:43.897Z,8.60
2019-03-17T13:10:20.318Z,8.70
2019-03-17T13:12:48.741Z,8.90
2019-03-17T13:15:17.350Z,9.10
2019-03-17T13:17:45.802Z,9.10
2019-03-17T13:20:15.670Z,9.10
2019-03-17T13:22:44.178Z,8.90
2019-03-17T13:25:14.096Z,8.90
2019-03-17T13:27:42.518Z,9.00
2019-03-17T13:30:13.874Z,9.10
2019-03-17T13:32:45.678Z,9.00
2019-03-17T13:35:14.504Z,9.00
2019-03-17T13:37:43.031Z,8.80
2019-03-17T13:40:13.425Z,8.70
2019-03-17T13:42:41.893Z,8.80
2019-03-17T13:45:13.233Z,8.80
2019-03-17T13:47:41.660Z,8.90
2019-03-17T13:50:18.704Z,9.00
2019-03-17T13:52:47.130Z,8.90
2019-03-17T13:55:15.542Z,9.00
2019-03-17T13:57:52.953Z,9.10
2019-03-17T14:00:21.535Z,8.80
2019-03-17T14:02:49.954Z,8.70
2019-03-17T14:05:18.386Z,8.70
2019-03-17T14:07:46.822Z,8.60
2019-03-17T14:10:16.987Z,8.80
2019-03-17T14:12:45.429Z,8.50
2019-03-17T14:15:14.993Z,8.50
2019-03-17T14:17:43.521Z,8.60
2019-03-17T14:20:14.845Z,8.70
2019-03-17T14:22:43.294Z,8.90
2019-03-17T14:25:27.210Z,9.30
2019-03-17T14:27:56.966Z,9.30
2019-03-17T14:30:25.397Z,9.30
2019-03-17T14:32:53.835Z,8.80
2019-03-17T14:35:22.272Z,8.70
2019-03-17T14:37:50.717Z,8.60
2019-03-17T14:40:19.438Z,8.60
2019-03-17T14:42:49.534Z,8.60
2019-03-17T14:45:18.406Z,8.70
2019-03-17T14:47:46.936Z,8.70
2019-03-17T14:50:22.364Z,9.90
2019-03-17T14:52:50.842Z,10.80
2019-03-17T14:55:19.449Z,11.60
2019-03-17T14:57:47.949Z,10.90
2019-03-17T15:00:18.309Z,11.40
2019-03-17T15:02:47.071Z,11.20
2019-03-17T15:05:15.556Z,11.60
2019-03-17T15:07:44.064Z,11.10
2019-03-17T15:10:15.845Z,9.30
2019-03-17T15:12:44.565Z,8.90
2019-03-17T15:15:17.259Z,8.60
2019-03-17T15:17:45.725Z,8.50
2019-03-17T15:20:19.690Z,8.30
2019-03-17T15:22:49.739Z,8.10
2019-03-17T15:25:18.174Z,8.00
2019-03-17T15:27:46.793Z,7.70
2019-03-17T15:30:29.397Z,7.40
2019-03-17T15:32:57.829Z,7.30
2019-03-17T15:35:26.491Z,7.20
2019-03-17T15:37:55.069Z,7.10
2019-03-17T15:40:23.501Z,7.10
2019-03-17T15:42:51.948Z,7.30
2019-03-17T15:45:21.699Z,7.20
2019-03-17T15:47:50.139Z,7.30
2019-03-17T15:50:20.678Z,7.20
2019-03-17T15:52:49.184Z,7.30
2019-03-17T15:55:18.281Z,7.50
2019-03-17T15:57:47.195Z,7.60
2019-03-17T16:00:25.505Z,7.50
2019-03-17T16:02:50.690Z,7.60
2019-03-17T16:05:19.774Z,7.60
2019-03-17T16:07:48.734Z,7.70
2019-03-17T16:10:27.032Z,7.70
2019-03-17T16:12:55.506Z,7.70
2019-03-17T16:15:23.941Z,7.80
2019-03-17T16:17:52.525Z,7.70
2019-03-17T16:20:22.138Z,7.80
2019-03-17T16:22:50.619Z,7.90
2019-03-17T16:25:31.181Z,7.90
2019-03-17T16:27:59.625Z,7.80
2019-03-17T16:30:32.112Z,7.80
2019-03-17T16:33:00.620Z,7.80
2019-03-17T16:35:29.066Z,7.80
2019-03-17T16:37:57.580Z,7.80
2019-03-17T16:40:30.608Z,7.90
2019-03-17T16:42:59.040Z,7.90
2019-03-17T16:45:28.962Z,7.80
2019-03-17T16:47:57.385Z,7.80
2019-03-17T16:50:25.817Z,7.80
2019-03-17T16:52:54.417Z,7.70
2019-03-17T16:55:22.857Z,7.80
2019-03-17T16:57:51.357Z,7.80
2019-03-17T17:00:24.018Z,7.90
2019-03-17T17:02:53.322Z,7.90
2019-03-17T17:05:23.865Z,7.90
2019-03-17T17:07:52.649Z,8.00
2019-03-17T17:10:30.779Z,8.00
2019-03-17T17:12:59.208Z,7.90
2019-03-17T17:15:34.897Z,7.90
2019-03-17T17:18:03.320Z,7.80
2019-03-17T17:20:34.165Z,7.80
2019-03-17T17:23:02.785Z,8.50
2019-03-17T17:25:31.227Z,8.30
2019-03-17T17:27:59.649Z,8.10
2019-03-17T17:30:28.073Z,7.90
2019-03-17T17:32:56.662Z,7.80
2019-03-17T17:35:25.110Z,7.70
2019-03-17T17:37:53.540Z,7.70
2019-03-17T17:40:23.319Z,7.70
2019-03-17T17:42:51.869Z,7.70
2019-03-17T17:45:22.445Z,7.60
2019-03-17T17:47:50.865Z,7.50
2019-03-17T17:50:21.145Z,7.50
2019-03-17T17:52:49.632Z,7.60
2019-03-17T17:55:18.148Z,7.50
2019-03-17T17:57:46.954Z,7.40
2019-03-17T18:00:22.593Z,7.40
2019-03-17T18:02:51.029Z,7.40
2019-03-17T18:05:19.453Z,7.40
2019-03-17T18:07:49.432Z,7.30
2019-03-17T18:10:18.586Z,7.30
2019-03-17T18:12:47.285Z,7.30
2019-03-17T18:15:28.713Z,7.20
2019-03-17T18:17:57.208Z,7.20
2019-03-17T18:20:25.645Z,7.20
2019-03-17T18:22:54.097Z,7.10
2019-03-17T18:25:22.915Z,7.10
2019-03-17T18:27:51.377Z,7.20
2019-03-17T18:30:24.375Z,7.20
2019-03-17T18:32:53.324Z,7.20
2019-03-17T18:35:22.605Z,7.20
2019-03-17T18:37:51.963Z,7.20
2019-03-17T18:40:21.787Z,7.10
2019-03-17T18:42:53.216Z,7.10
2019-03-17T18:45:27.456Z,7.20
2019-03-17T18:47:57.685Z,7.10
2019-03-17T18:50:27.000Z,7.00
2019-03-17T18:52:56.337Z,7.00
2019-03-17T18:55:25.089Z,7.00
2019-03-17T18:57:54.308Z,7.00
2019-03-17T19:00:24.842Z,6.90
2019-03-17T19:02:55.357Z,6.80
2019-03-17T19:05:26.508Z,6.80
2019-03-17T19:07:55.002Z,6.80
2019-03-17T19:10:23.581Z,7.20
2019-03-17T19:12:52.270Z,7.40
2019-03-17T19:15:22.892Z,7.60
2019-03-17T19:17:51.343Z,7.70
2019-03-17T19:20:21.669Z,7.10
2019-03-17T19:22:50.137Z,6.90
2019-03-17T19:25:25.849Z,6.80
2019-03-17T19:27:54.344Z,6.80
2019-03-17T19:30:23.835Z,6.70
2019-03-17T19:32:52.282Z,6.70
2019-03-17T19:35:21.045Z,6.60
2019-03-17T19:37:49.477Z,6.50
2019-03-17T19:40:21.041Z,6.50
2019-03-17T19:42:58.644Z,6.40
2019-03-17T19:45:19.782Z,6.30
2019-03-17T19:47:48.201Z,6.30
2019-03-17T19:50:20.652Z,6.20
2019-03-17T19:52:49.153Z,6.10
2019-03-17T19:55:17.570Z,6.10
2019-03-17T19:57:45.998Z,6.10
2019-03-17T20:00:16.297Z,6.10
2019-03-17T20:02:47.490Z,6.10
2019-03-17T20:05:14.914Z,6.10
2019-03-17T20:07:43.333Z,6.00
2019-03-17T20:10:14.714Z,6.00
2019-03-17T20:12:43.151Z,6.00
2019-03-17T20:15:11.577Z,5.90
2019-03-17T20:17:40.010Z,5.90
2019-03-17T20:20:13.822Z,5.90
2019-03-17T20:22:42.247Z,5.90
2019-03-17T20:25:10.687Z,5.80
2019-03-17T20:27:39.135Z,5.80
2019-03-17T20:30:12.873Z,5.90
2019-03-17T20:32:42.996Z,6.00
2019-03-17T20:35:12.715Z,5.90
2019-03-17T20:37:41.139Z,5.80
2019-03-17T20:40:17.765Z,5.80
2019-03-17T20:42:46.398Z,5.80
2019-03-17T20:45:20.181Z,5.70
2019-03-17T20:47:47.845Z,5.70
2019-03-17T20:50:18.022Z,5.60
2019-03-17T20:52:46.474Z,5.70
2019-03-17T20:55:15.054Z,5.70
2019-03-17T20:57:45.494Z,5.70
2019-03-17T21:00:19.302Z,5.70
2019-03-17T21:02:47.749Z,5.80
2019-03-17T21:05:16.194Z,5.70
2019-03-17T21:07:44.624Z,5.80
2019-03-17T21:10:17.511Z,5.70
2019-03-17T21:12:47.467Z,5.70
2019-03-17T21:15:20.260Z,5.50
2019-03-17T21:17:49.957Z,5.50
2019-03-17T21:20:20.616Z,5.50
2019-03-17T21:22:49.176Z,5.60
2019-03-17T21:25:17.609Z,5.60
2019-03-17T21:27:46.075Z,5.50
2019-03-17T21:30:23.056Z,5.50
2019-03-17T21:32:51.488Z,5.50
2019-03-17T21:35:19.926Z,5.50
2019-03-17T21:37:48.369Z,5.40
2019-03-17T21:40:16.787Z,5.40
2019-03-17T21:42:45.252Z,5.50
2019-03-17T21:45:14.402Z,5.40
2019-03-17T21:47:42.860Z,5.40
2019-03-17T21:50:14.080Z,5.40
2019-03-17T21:52:42.513Z,5.40
2019-03-17T21:55:11.753Z,5.40
2019-03-17T21:57:40.293Z,5.40
2019-03-17T22:00:11.793Z,5.30
2019-03-17T22:02:40.233Z,5.40
2019-03-17T22:05:11.577Z,5.30
2019-03-17T22:07:49.646Z,5.30
2019-03-17T22:10:13.382Z,5.30
2019-03-17T22:12:41.805Z,5.30
2019-03-17T22:15:18.185Z,5.30
2019-03-17T22:17:46.711Z,5.20
2019-03-17T22:20:16.456Z,5.20
2019-03-17T22:22:44.913Z,5.20
2019-03-17T22:25:14.674Z,5.20
2019-03-17T22:27:43.109Z,5.20
2019-03-17T22:30:18.839Z,5.20
2019-03-17T22:32:47.274Z,5.20
2019-03-17T22:35:15.697Z,5.20
2019-03-17T22:37:44.135Z,5.20
2019-03-17T22:40:18.499Z,5.20
2019-03-17T22:42:46.934Z,5.20
2019-03-17T22:45:17.086Z,5.10
2019-03-17T22:47:45.535Z,5.10
2019-03-17T22:50:19.486Z,5.10
2019-03-17T22:52:47.904Z,5.10
2019-03-17T22:55:17.875Z,5.10
2019-03-17T22:57:46.308Z,5.20
2019-03-17T23:00:35.706Z,5.20
2019-03-17T23:03:05.562Z,5.10
2019-03-17T23:05:33.984Z,5.10
2019-03-17T23:08:02.413Z,5.10
2019-03-17T23:10:30.972Z,5.10
2019-03-17T23:12:59.997Z,5.20
2019-03-17T23:15:28.423Z,5.10
2019-03-17T23:17:56.875Z,5.10
2019-03-17T23:20:25.299Z,5.10
2019-03-17T23:22:53.740Z,5.20
2019-03-17T23:25:22.270Z,5.20
2019-03-17T23:27:50.749Z,5.20
2019-03-17T23:30:20.321Z,5.20
2019-03-17T23:32:49.373Z,5.20
2019-03-17T23:35:18.532Z,5.20
2019-03-17T23:37:46.943Z,5.20
2019-03-17T23:40:16.730Z,5.10
2019-03-17T23:42:45.151Z,5.10
2019-03-17T23:45:14.185Z,5.10
2019-03-17T23:50:13.957Z,5.00
2019-03-17T23:52:42.927Z,4.90
2019-03-17T23:55:15.689Z,4.90
2019-03-17T23:57:44.118Z,4.90
